sensor_id;sensor_type;location;lat;lon;timestamp;P1;P2;P0
72307;PMS5003;60257;42.638;23.376;2023-12-20T00:01:02;68.75;53.00;30.00
72307;PMS5003;60257;42.638;23.376;2023-12-20T00:03:28;72.00;56.50;36.00
72307;PMS5003;60257;42.638;23.376;2023-12-20T00:05:53;67.00;55.00;35.75
72307;PMS5003;60257;42.638;23.376;2023-12-20T00:08:18;64.25;51.75;32.00
72307;PMS5003;60257;42.638;23.376;2023-12-20T00:10:44;71.75;56.00;33.75
72307;PMS5003;60257;42.638;23.376;2023-12-20T00:13:10;67.50;54.75;33.50
72307;PMS5003;60257;42.638;23.376;2023-12-20T00:15:36;72.50;57.00;36.00
72307;PMS5003;60257;42.638;23.376;2023-12-20T00:18:01;68.50;55.25;33.50
72307;PMS5003;60257;42.638;23.376;2023-12-20T00:20:27;69.50;55.75;32.75
72307;PMS5003;60257;42.638;23.376;2023-12-20T00:22:55;68.50;53.00;31.50
72307;PMS5003;60257;42.638;23.376;2023-12-20T00:25:22;64.25;53.00;33.00
72307;PMS5003;60257;42.638;23.376;2023-12-20T00:27:48;63.50;53.00;33.00
72307;PMS5003;60257;42.638;23.376;2023-12-20T00:30:13;65.00;52.25;33.25
72307;PMS5003;60257;42.638;23.376;2023-12-20T00:32:38;52.50;46.75;33.25
72307;PMS5003;60257;42.638;23.376;2023-12-20T00:35:04;55.00;48.50;29.50
72307;PMS5003;60257;42.638;23.376;2023-12-20T00:37:29;69.75;55.75;32.00
72307;PMS5003;60257;42.638;23.376;2023-12-20T00:39:55;59.75;48.00;30.75
72307;PMS5003;60257;42.638;23.376;2023-12-20T00:42:20;42.75;36.25;23.75
72307;PMS5003;60257;42.638;23.376;2023-12-20T00:44:45;65.00;55.00;33.00
72307;PMS5003;60257;42.638;23.376;2023-12-20T00:47:11;69.25;55.50;33.25
72307;PMS5003;60257;42.638;23.376;2023-12-20T00:49:36;69.00;57.75;35.00
72307;PMS5003;60257;42.638;23.376;2023-12-20T00:52:02;42.50;36.75;26.25
72307;PMS5003;60257;42.638;23.376;2023-12-20T00:54:27;57.50;50.25;32.50
72307;PMS5003;60257;42.638;23.376;2023-12-20T00:56:53;63.25;52.00;32.75
72307;PMS5003;60257;42.638;23.376;2023-12-20T00:59:18;52.50;43.50;26.25
72307;PMS5003;60257;42.638;23.376;2023-12-20T01:01:44;56.00;48.00;28.25
72307;PMS5003;60257;42.638;23.376;2023-12-20T01:04:09;49.50;43.75;27.50
72307;PMS5003;60257;42.638;23.376;2023-12-20T01:06:35;54.75;47.00;29.75
72307;PMS5003;60257;42.638;23.376;2023-12-20T01:09:00;47.75;38.25;19.00
72307;PMS5003;60257;42.638;23.376;2023-12-20T01:11:26;33.00;28.25;13.50
72307;PMS5003;60257;42.638;23.376;2023-12-20T01:13:51;35.75;29.50;19.00
72307;PMS5003;60257;42.638;23.376;2023-12-20T01:16:16;36.75;31.00;18.25
72307;PMS5003;60257;42.638;23.376;2023-12-20T01:18:42;38.75;38.00;21.25
72307;PMS5003;60257;42.638;23.376;2023-12-20T01:21:07;34.50;30.50;21.00
72307;PMS5003;60257;42.638;23.376;2023-12-20T01:23:32;37.25;30.00;20.75
72307;PMS5003;60257;42.638;23.376;2023-12-20T01:25:58;35.50;31.25;19.25
72307;PMS5003;60257;42.638;23.376;2023-12-20T01:28:27;33.50;26.50;12.00
72307;PMS5003;60257;42.638;23.376;2023-12-20T01:30:53;32.00;28.50;16.25
72307;PMS5003;60257;42.638;23.376;2023-12-20T01:33:18;39.75;30.50;18.75
72307;PMS5003;60257;42.638;23.376;2023-12-20T01:35:43;38.75;33.50;23.50
72307;PMS5003;60257;42.638;23.376;2023-12-20T01:38:09;39.50;35.00;20.50
72307;PMS5003;60257;42.638;23.376;2023-12-20T01:40:34;33.25;29.25;21.75
72307;PMS5003;60257;42.638;23.376;2023-12-20T01:43:01;33.25;31.50;19.25
72307;PMS5003;60257;42.638;23.376;2023-12-20T01:45:27;26.25;26.25;18.50
72307;PMS5003;60257;42.638;23.376;2023-12-20T01:47:53;38.25;33.75;23.00
72307;PMS5003;60257;42.638;23.376;2023-12-20T01:50:21;36.25;34.00;19.25
72307;PMS5003;60257;42.638;23.376;2023-12-20T01:52:46;38.25;37.25;23.00
72307;PMS5003;60257;42.638;23.376;2023-12-20T01:55:13;35.00;30.50;18.75
72307;PMS5003;60257;42.638;23.376;2023-12-20T01:57:43;44.50;39.75;21.50
72307;PMS5003;60257;42.638;23.376;2023-12-20T02:00:10;42.00;40.00;22.00
72307;PMS5003;60257;42.638;23.376;2023-12-20T02:02:39;33.00;28.00;14.00
72307;PMS5003;60257;42.638;23.376;2023-12-20T02:05:08;33.50;31.50;19.00
72307;PMS5003;60257;42.638;23.376;2023-12-20T02:07:33;29.50;27.75;17.25
72307;PMS5003;60257;42.638;23.376;2023-12-20T02:10:00;38.75;32.25;20.00
72307;PMS5003;60257;42.638;23.376;2023-12-20T02:12:26;34.25;33.00;19.50
72307;PMS5003;60257;42.638;23.376;2023-12-20T02:14:51;22.75;22.75;18.50
72307;PMS5003;60257;42.638;23.376;2023-12-20T02:17:17;35.00;33.25;20.25
72307;PMS5003;60257;42.638;23.376;2023-12-20T02:19:43;37.75;32.50;22.00
72307;PMS5003;60257;42.638;23.376;2023-12-20T02:22:11;30.50;28.25;16.50
72307;PMS5003;60257;42.638;23.376;2023-12-20T02:24:37;38.00;35.00;21.00
72307;PMS5003;60257;42.638;23.376;2023-12-20T02:27:03;37.25;37.00;22.50
72307;PMS5003;60257;42.638;23.376;2023-12-20T02:29:32;26.50;26.25;15.75
72307;PMS5003;60257;42.638;23.376;2023-12-20T02:31:58;40.50;34.25;20.00
72307;PMS5003;60257;42.638;23.376;2023-12-20T02:34:23;32.50;29.25;15.75
72307;PMS5003;60257;42.638;23.376;2023-12-20T02:36:49;37.50;32.00;17.00
72307;PMS5003;60257;42.638;23.376;2023-12-20T02:39:14;43.75;36.50;21.50
72307;PMS5003;60257;42.638;23.376;2023-12-20T02:41:39;24.25;22.00;17.50
72307;PMS5003;60257;42.638;23.376;2023-12-20T02:44:05;35.50;32.75;21.75
72307;PMS5003;60257;42.638;23.376;2023-12-20T02:46:30;41.50;33.00;17.25
72307;PMS5003;60257;42.638;23.376;2023-12-20T02:48:56;31.50;31.00;15.00
72307;PMS5003;60257;42.638;23.376;2023-12-20T02:51:21;41.75;40.25;21.00
72307;PMS5003;60257;42.638;23.376;2023-12-20T02:53:46;42.00;37.50;23.75
72307;PMS5003;60257;42.638;23.376;2023-12-20T02:56:12;51.50;42.75;26.00
72307;PMS5003;60257;42.638;23.376;2023-12-20T02:58:38;51.50;41.25;24.00
72307;PMS5003;60257;42.638;23.376;2023-12-20T03:01:04;57.50;49.75;30.25
72307;PMS5003;60257;42.638;23.376;2023-12-20T03:03:29;55.25;44.25;28.50
72307;PMS5003;60257;42.638;23.376;2023-12-20T03:05:54;54.00;45.00;27.25
72307;PMS5003;60257;42.638;23.376;2023-12-20T03:08:20;61.00;49.75;29.75
72307;PMS5003;60257;42.638;23.376;2023-12-20T03:10:45;54.50;45.75;28.50
72307;PMS5003;60257;42.638;23.376;2023-12-20T03:13:11;58.25;47.75;29.50
72307;PMS5003;60257;42.638;23.376;2023-12-20T03:15:36;51.00;41.50;26.00
72307;PMS5003;60257;42.638;23.376;2023-12-20T03:18:02;54.75;44.00;28.25
72307;PMS5003;60257;42.638;23.376;2023-12-20T03:20:28;52.00;45.00;26.25
72307;PMS5003;60257;42.638;23.376;2023-12-20T03:22:53;53.25;43.25;27.50
72307;PMS5003;60257;42.638;23.376;2023-12-20T03:25:19;62.00;47.00;31.50
72307;PMS5003;60257;42.638;23.376;2023-12-20T03:27:44;59.75;46.50;27.00
72307;PMS5003;60257;42.638;23.376;2023-12-20T03:30:09;62.25;50.75;32.25
72307;PMS5003;60257;42.638;23.376;2023-12-20T03:32:36;65.50;56.50;36.00
72307;PMS5003;60257;42.638;23.376;2023-12-20T03:35:02;69.50;55.25;36.00
72307;PMS5003;60257;42.638;23.376;2023-12-20T03:37:28;64.75;51.75;33.50
72307;PMS5003;60257;42.638;23.376;2023-12-20T03:39:53;66.50;54.75;32.00
72307;PMS5003;60257;42.638;23.376;2023-12-20T03:42:18;51.50;47.25;29.00
72307;PMS5003;60257;42.638;23.376;2023-12-20T03:44:44;70.50;56.25;37.00
72307;PMS5003;60257;42.638;23.376;2023-12-20T03:47:09;71.75;57.00;36.25
72307;PMS5003;60257;42.638;23.376;2023-12-20T03:49:35;78.25;61.50;38.25
72307;PMS5003;60257;42.638;23.376;2023-12-20T03:52:02;67.25;54.50;34.75
72307;PMS5003;60257;42.638;23.376;2023-12-20T03:54:28;62.50;53.25;33.00
72307;PMS5003;60257;42.638;23.376;2023-12-20T03:56:53;77.75;62.75;38.00
72307;PMS5003;60257;42.638;23.376;2023-12-20T03:59:19;78.00;60.75;36.75
72307;PMS5003;60257;42.638;23.376;2023-12-20T04:01:45;79.25;62.25;38.25
72307;PMS5003;60257;42.638;23.376;2023-12-20T04:04:10;84.50;62.00;37.75
72307;PMS5003;60257;42.638;23.376;2023-12-20T04:06:36;87.50;67.25;43.00
72307;PMS5003;60257;42.638;23.376;2023-12-20T04:09:02;66.00;51.50;25.00
72307;PMS5003;60257;42.638;23.376;2023-12-20T04:11:28;70.25;56.75;34.00
72307;PMS5003;60257;42.638;23.376;2023-12-20T04:13:53;82.50;63.75;38.00
72307;PMS5003;60257;42.638;23.376;2023-12-20T04:16:19;83.25;63.50;38.75
72307;PMS5003;60257;42.638;23.376;2023-12-20T04:18:44;84.25;66.25;40.25
72307;PMS5003;60257;42.638;23.376;2023-12-20T04:21:10;83.00;67.00;41.25
72307;PMS5003;60257;42.638;23.376;2023-12-20T04:23:35;77.75;63.00;37.25
72307;PMS5003;60257;42.638;23.376;2023-12-20T04:26:01;80.50;63.25;39.00
72307;PMS5003;60257;42.638;23.376;2023-12-20T04:28:26;74.25;59.75;37.50
72307;PMS5003;60257;42.638;23.376;2023-12-20T04:30:51;75.00;62.00;39.00
72307;PMS5003;60257;42.638;23.376;2023-12-20T04:33:17;74.00;59.75;37.50
72307;PMS5003;60257;42.638;23.376;2023-12-20T04:35:42;67.50;55.00;33.25
72307;PMS5003;60257;42.638;23.376;2023-12-20T04:38:08;71.50;56.25;36.00
72307;PMS5003;60257;42.638;23.376;2023-12-20T04:40:34;71.00;56.75;37.00
72307;PMS5003;60257;42.638;23.376;2023-12-20T04:42:59;67.75;57.75;38.25
72307;PMS5003;60257;42.638;23.376;2023-12-20T04:45:25;32.25;30.25;11.00
72307;PMS5003;60257;42.638;23.376;2023-12-20T04:47:50;55.25;46.75;29.25
72307;PMS5003;60257;42.638;23.376;2023-12-20T04:50:16;47.50;41.75;27.75
72307;PMS5003;60257;42.638;23.376;2023-12-20T04:52:42;46.25;42.25;24.00
72307;PMS5003;60257;42.638;23.376;2023-12-20T04:55:07;36.75;31.50;18.25
72307;PMS5003;60257;42.638;23.376;2023-12-20T04:57:34;37.25;35.25;18.50
72307;PMS5003;60257;42.638;23.376;2023-12-20T04:59:59;33.50;27.00;18.25
72307;PMS5003;60257;42.638;23.376;2023-12-20T05:02:25;39.25;37.75;26.50
72307;PMS5003;60257;42.638;23.376;2023-12-20T05:04:51;49.00;44.50;24.50
72307;PMS5003;60257;42.638;23.376;2023-12-20T05:07:16;52.50;45.25;28.00
72307;PMS5003;60257;42.638;23.376;2023-12-20T05:09:41;74.00;59.50;36.25
72307;PMS5003;60257;42.638;23.376;2023-12-20T05:12:07;79.75;64.50;38.25
72307;PMS5003;60257;42.638;23.376;2023-12-20T05:14:33;88.50;68.00;42.75
72307;PMS5003;60257;42.638;23.376;2023-12-20T05:16:58;97.50;73.50;45.50
72307;PMS5003;60257;42.638;23.376;2023-12-20T05:19:24;82.75;64.75;37.50
72307;PMS5003;60257;42.638;23.376;2023-12-20T05:21:50;90.00;72.25;43.25
72307;PMS5003;60257;42.638;23.376;2023-12-20T05:24:15;89.00;70.75;43.25
72307;PMS5003;60257;42.638;23.376;2023-12-20T05:26:40;93.75;71.50;43.00
72307;PMS5003;60257;42.638;23.376;2023-12-20T05:29:06;101.00;80.50;45.75
72307;PMS5003;60257;42.638;23.376;2023-12-20T05:31:31;97.50;77.50;49.00
72307;PMS5003;60257;42.638;23.376;2023-12-20T05:33:57;103.25;75.50;45.75
72307;PMS5003;60257;42.638;23.376;2023-12-20T05:36:23;87.00;65.50;33.75
72307;PMS5003;60257;42.638;23.376;2023-12-20T05:38:48;96.50;74.00;44.25
72307;PMS5003;60257;42.638;23.376;2023-12-20T05:41:14;97.25;75.75;47.25
72307;PMS5003;60257;42.638;23.376;2023-12-20T05:43:39;100.25;77.00;47.00
72307;PMS5003;60257;42.638;23.376;2023-12-20T05:46:09;96.00;75.75;47.75
72307;PMS5003;60257;42.638;23.376;2023-12-20T05:48:36;92.25;70.75;41.00
72307;PMS5003;60257;42.638;23.376;2023-12-20T05:51:01;84.75;64.50;41.00
72307;PMS5003;60257;42.638;23.376;2023-12-20T05:53:26;103.75;77.00;47.50
72307;PMS5003;60257;42.638;23.376;2023-12-20T05:55:52;111.75;96.50;58.25
72307;PMS5003;60257;42.638;23.376;2023-12-20T05:58:17;107.00;85.50;53.25
72307;PMS5003;60257;42.638;23.376;2023-12-20T06:00:43;98.75;80.50;50.25
72307;PMS5003;60257;42.638;23.376;2023-12-20T06:03:08;105.50;82.25;49.00
72307;PMS5003;60257;42.638;23.376;2023-12-20T06:05:33;107.50;76.25;46.75
72307;PMS5003;60257;42.638;23.376;2023-12-20T06:07:59;108.50;86.25;47.75
72307;PMS5003;60257;42.638;23.376;2023-12-20T06:10:27;101.50;80.00;48.00
72307;PMS5003;60257;42.638;23.376;2023-12-20T06:12:53;107.50;87.00;47.75
72307;PMS5003;60257;42.638;23.376;2023-12-20T06:15:18;104.25;78.00;49.00
72307;PMS5003;60257;42.638;23.376;2023-12-20T06:17:44;104.50;85.00;49.25
72307;PMS5003;60257;42.638;23.376;2023-12-20T06:20:11;111.75;91.25;50.25
72307;PMS5003;60257;42.638;23.376;2023-12-20T06:22:38;107.50;87.00;50.50
72307;PMS5003;60257;42.638;23.376;2023-12-20T06:25:04;97.50;73.75;47.25
72307;PMS5003;60257;42.638;23.376;2023-12-20T06:27:30;86.50;65.25;43.50
72307;PMS5003;60257;42.638;23.376;2023-12-20T06:29:57;95.00;72.00;43.75
72307;PMS5003;60257;42.638;23.376;2023-12-20T06:32:24;95.50;73.00;43.75
72307;PMS5003;60257;42.638;23.376;2023-12-20T06:34:49;88.25;68.00;41.00
72307;PMS5003;60257;42.638;23.376;2023-12-20T06:37:15;90.50;68.50;43.00
72307;PMS5003;60257;42.638;23.376;2023-12-20T06:39:40;81.25;65.00;35.25
72307;PMS5003;60257;42.638;23.376;2023-12-20T06:42:06;85.50;67.00;41.00
72307;PMS5003;60257;42.638;23.376;2023-12-20T06:44:31;91.25;67.75;45.00
72307;PMS5003;60257;42.638;23.376;2023-12-20T06:46:57;93.00;72.00;45.00
72307;PMS5003;60257;42.638;23.376;2023-12-20T06:49:22;83.75;68.50;44.00
72307;PMS5003;60257;42.638;23.376;2023-12-20T06:51:48;94.75;72.75;44.00
72307;PMS5003;60257;42.638;23.376;2023-12-20T06:54:14;87.00;65.25;39.75
72307;PMS5003;60257;42.638;23.376;2023-12-20T06:56:39;73.00;62.25;34.25
72307;PMS5003;60257;42.638;23.376;2023-12-20T06:59:07;97.00;75.25;46.00
72307;PMS5003;60257;42.638;23.376;2023-12-20T07:01:32;93.50;71.00;43.00
72307;PMS5003;60257;42.638;23.376;2023-12-20T07:03:58;99.50;77.50;48.25
72307;PMS5003;60257;42.638;23.376;2023-12-20T07:06:23;96.25;74.00;46.25
72307;PMS5003;60257;42.638;23.376;2023-12-20T07:08:50;90.00;69.50;43.25
72307;PMS5003;60257;42.638;23.376;2023-12-20T07:11:16;93.50;76.25;48.00
72307;PMS5003;60257;42.638;23.376;2023-12-20T07:13:41;88.50;68.25;44.75
72307;PMS5003;60257;42.638;23.376;2023-12-20T07:16:07;103.50;77.75;44.50
72307;PMS5003;60257;42.638;23.376;2023-12-20T07:18:32;91.00;70.50;43.25
72307;PMS5003;60257;42.638;23.376;2023-12-20T07:20:58;179.50;150.00;71.25
72307;PMS5003;60257;42.638;23.376;2023-12-20T07:23:23;89.25;69.25;43.25
72307;PMS5003;60257;42.638;23.376;2023-12-20T07:25:48;95.50;72.00;44.00
72307;PMS5003;60257;42.638;23.376;2023-12-20T07:28:14;79.00;64.50;39.75
72307;PMS5003;60257;42.638;23.376;2023-12-20T07:30:39;73.50;58.75;37.25
72307;PMS5003;60257;42.638;23.376;2023-12-20T07:33:04;73.25;61.25;38.50
72307;PMS5003;60257;42.638;23.376;2023-12-20T07:35:33;81.75;64.75;39.50
72307;PMS5003;60257;42.638;23.376;2023-12-20T07:37:58;90.00;72.00;43.00
72307;PMS5003;60257;42.638;23.376;2023-12-20T07:40:23;91.75;71.25;44.75
72307;PMS5003;60257;42.638;23.376;2023-12-20T07:42:49;94.75;74.00;46.25
72307;PMS5003;60257;42.638;23.376;2023-12-20T07:45:14;91.75;70.00;42.50
72307;PMS5003;60257;42.638;23.376;2023-12-20T07:47:40;104.50;88.25;58.50
72307;PMS5003;60257;42.638;23.376;2023-12-20T07:50:06;90.50;70.00;44.25
72307;PMS5003;60257;42.638;23.376;2023-12-20T07:52:31;99.00;79.00;46.25
72307;PMS5003;60257;42.638;23.376;2023-12-20T07:54:57;81.50;64.25;37.25
72307;PMS5003;60257;42.638;23.376;2023-12-20T07:57:23;87.75;68.75;40.00
72307;PMS5003;60257;42.638;23.376;2023-12-20T07:59:48;92.50;73.50;47.00
72307;PMS5003;60257;42.638;23.376;2023-12-20T08:02:14;106.25;88.50;54.75
72307;PMS5003;60257;42.638;23.376;2023-12-20T08:04:40;94.75;71.00;43.00
72307;PMS5003;60257;42.638;23.376;2023-12-20T08:07:06;97.50;76.25;45.25
72307;PMS5003;60257;42.638;23.376;2023-12-20T08:09:32;101.00;79.50;46.25
72307;PMS5003;60257;42.638;23.376;2023-12-20T08:11:58;106.75;86.00;48.50
72307;PMS5003;60257;42.638;23.376;2023-12-20T08:14:25;104.75;80.50;47.00
72307;PMS5003;60257;42.638;23.376;2023-12-20T08:16:50;122.75;108.75;59.25
72307;PMS5003;60257;42.638;23.376;2023-12-20T08:19:15;110.25;95.50;55.00
72307;PMS5003;60257;42.638;23.376;2023-12-20T08:21:41;115.50;102.00;57.50
72307;PMS5003;60257;42.638;23.376;2023-12-20T08:24:06;117.25;102.75;61.00
72307;PMS5003;60257;42.638;23.376;2023-12-20T08:26:32;120.25;104.75;55.75
72307;PMS5003;60257;42.638;23.376;2023-12-20T08:28:58;109.75;95.00;56.00
72307;PMS5003;60257;42.638;23.376;2023-12-20T08:31:23;111.50;97.75;56.50
72307;PMS5003;60257;42.638;23.376;2023-12-20T08:33:49;121.75;105.25;59.50
72307;PMS5003;60257;42.638;23.376;2023-12-20T08:36:15;102.00;88.25;51.50
72307;PMS5003;60257;42.638;23.376;2023-12-20T08:38:40;105.50;87.50;48.75
72307;PMS5003;60257;42.638;23.376;2023-12-20T08:41:06;117.25;100.50;58.00
72307;PMS5003;60257;42.638;23.376;2023-12-20T08:43:32;103.25;79.50;47.00
72307;PMS5003;60257;42.638;23.376;2023-12-20T08:45:59;97.75;75.00;45.75
72307;PMS5003;60257;42.638;23.376;2023-12-20T08:48:24;103.75;84.50;47.25
72307;PMS5003;60257;42.638;23.376;2023-12-20T08:50:50;102.00;83.75;53.00
72307;PMS5003;60257;42.638;23.376;2023-12-20T08:53:17;104.00;88.25;47.25
72307;PMS5003;60257;42.638;23.376;2023-12-20T08:55:43;104.00;86.50;51.75
72307;PMS5003;60257;42.638;23.376;2023-12-20T08:58:08;106.75;95.25;52.75
72307;PMS5003;60257;42.638;23.376;2023-12-20T09:00:34;115.75;101.50;57.50
72307;PMS5003;60257;42.638;23.376;2023-12-20T09:03:00;112.00;103.00;56.25
72307;PMS5003;60257;42.638;23.376;2023-12-20T09:05:26;113.75;96.00;52.75
72307;PMS5003;60257;42.638;23.376;2023-12-20T09:07:52;97.75;78.25;46.00
72307;PMS5003;60257;42.638;23.376;2023-12-20T09:10:17;106.25;90.25;48.00
72307;PMS5003;60257;42.638;23.376;2023-12-20T09:12:47;97.25;74.25;45.25
72307;PMS5003;60257;42.638;23.376;2023-12-20T09:15:13;103.75;85.25;51.25
72307;PMS5003;60257;42.638;23.376;2023-12-20T09:17:39;104.75;94.75;54.25
72307;PMS5003;60257;42.638;23.376;2023-12-20T09:20:05;110.75;94.75;51.25
72307;PMS5003;60257;42.638;23.376;2023-12-20T09:22:33;104.25;88.00;54.25
72307;PMS5003;60257;42.638;23.376;2023-12-20T09:24:59;103.25;87.50;50.75
72307;PMS5003;60257;42.638;23.376;2023-12-20T09:27:24;101.25;82.50;46.00
72307;PMS5003;60257;42.638;23.376;2023-12-20T09:29:49;105.50;88.75;46.00
72307;PMS5003;60257;42.638;23.376;2023-12-20T09:32:15;99.50;84.25;50.25
72307;PMS5003;60257;42.638;23.376;2023-12-20T09:34:40;104.75;90.75;53.00
72307;PMS5003;60257;42.638;23.376;2023-12-20T09:37:06;104.00;91.75;55.75
72307;PMS5003;60257;42.638;23.376;2023-12-20T09:39:32;116.50;104.50;55.25
72307;PMS5003;60257;42.638;23.376;2023-12-20T09:42:05;102.25;89.75;46.75
72307;PMS5003;60257;42.638;23.376;2023-12-20T09:44:31;113.25;104.50;57.50
72307;PMS5003;60257;42.638;23.376;2023-12-20T09:46:59;108.25;94.25;54.75
72307;PMS5003;60257;42.638;23.376;2023-12-20T09:49:28;111.00;93.50;51.25
72307;PMS5003;60257;42.638;23.376;2023-12-20T09:51:53;119.00;102.00;54.00
72307;PMS5003;60257;42.638;23.376;2023-12-20T09:54:20;117.25;100.00;55.50
72307;PMS5003;60257;42.638;23.376;2023-12-20T09:56:46;104.00;94.00;55.50
72307;PMS5003;60257;42.638;23.376;2023-12-20T09:59:12;149.75;126.00;67.75
72307;PMS5003;60257;42.638;23.376;2023-12-20T10:01:39;108.25;96.00;56.75
72307;PMS5003;60257;42.638;23.376;2023-12-20T10:04:06;109.25;98.25;55.00
72307;PMS5003;60257;42.638;23.376;2023-12-20T10:06:35;111.00;99.50;59.25
72307;PMS5003;60257;42.638;23.376;2023-12-20T10:09:01;104.00;90.50;51.50
72307;PMS5003;60257;42.638;23.376;2023-12-20T10:11:27;109.00;96.00;52.25
72307;PMS5003;60257;42.638;23.376;2023-12-20T10:13:58;107.00;98.25;62.00
72307;PMS5003;60257;42.638;23.376;2023-12-20T10:16:25;107.75;97.50;52.50
72307;PMS5003;60257;42.638;23.376;2023-12-20T10:18:52;104.00;87.50;55.00
72307;PMS5003;60257;42.638;23.376;2023-12-20T10:21:18;121.25;106.75;60.00
72307;PMS5003;60257;42.638;23.376;2023-12-20T10:23:43;99.25;91.25;52.25
72307;PMS5003;60257;42.638;23.376;2023-12-20T10:26:09;103.00;97.25;53.25
72307;PMS5003;60257;42.638;23.376;2023-12-20T10:28:34;122.75;101.00;54.25
72307;PMS5003;60257;42.638;23.376;2023-12-20T10:31:00;112.50;102.25;56.50
72307;PMS5003;60257;42.638;23.376;2023-12-20T10:33:26;101.75;93.50;60.75
72307;PMS5003;60257;42.638;23.376;2023-12-20T10:35:53;107.50;98.50;52.00
72307;PMS5003;60257;42.638;23.376;2023-12-20T10:38:20;114.25;102.25;59.50
72307;PMS5003;60257;42.638;23.376;2023-12-20T10:40:45;107.75;93.25;47.75
72307;PMS5003;60257;42.638;23.376;2023-12-20T10:43:11;101.50;88.75;48.75
72307;PMS5003;60257;42.638;23.376;2023-12-20T10:45:37;115.50;103.00;57.25
72307;PMS5003;60257;42.638;23.376;2023-12-20T10:48:03;114.00;101.25;59.75
72307;PMS5003;60257;42.638;23.376;2023-12-20T10:50:29;102.75;90.75;58.50
72307;PMS5003;60257;42.638;23.376;2023-12-20T10:52:56;102.50;95.50;54.25
72307;PMS5003;60257;42.638;23.376;2023-12-20T10:55:22;104.25;94.50;53.00
72307;PMS5003;60257;42.638;23.376;2023-12-20T10:57:52;99.25;88.50;53.00
72307;PMS5003;60257;42.638;23.376;2023-12-20T11:00:26;108.25;92.75;56.50
72307;PMS5003;60257;42.638;23.376;2023-12-20T11:02:55;102.75;93.75;55.75
72307;PMS5003;60257;42.638;23.376;2023-12-20T11:05:31;104.75;95.50;60.00
72307;PMS5003;60257;42.638;23.376;2023-12-20T11:08:39;117.50;103.75;60.25
72307;PMS5003;60257;42.638;23.376;2023-12-20T11:14:19;113.50;104.50;57.75
72307;PMS5003;60257;42.638;23.376;2023-12-20T11:16:48;116.50;109.50;59.75
72307;PMS5003;60257;42.638;23.376;2023-12-20T11:19:14;130.50;119.75;68.25
72307;PMS5003;60257;42.638;23.376;2023-12-20T11:21:40;121.25;112.25;57.00
72307;PMS5003;60257;42.638;23.376;2023-12-20T11:24:06;108.25;97.50;54.25
72307;PMS5003;60257;42.638;23.376;2023-12-20T11:26:31;113.00;98.50;54.25
72307;PMS5003;60257;42.638;23.376;2023-12-20T11:34:53;118.75;107.50;59.25
72307;PMS5003;60257;42.638;23.376;2023-12-20T11:37:20;101.50;82.75;40.00
72307;PMS5003;60257;42.638;23.376;2023-12-20T11:39:51;108.00;95.75;57.00
72307;PMS5003;60257;42.638;23.376;2023-12-20T11:42:20;122.75;107.25;61.75
72307;PMS5003;60257;42.638;23.376;2023-12-20T11:44:45;112.75;103.25;58.75
72307;PMS5003;60257;42.638;23.376;2023-12-20T11:47:11;105.50;94.75;51.25
72307;PMS5003;60257;42.638;23.376;2023-12-20T11:49:38;111.75;98.50;55.50
72307;PMS5003;60257;42.638;23.376;2023-12-20T11:52:04;99.75;89.00;49.75
72307;PMS5003;60257;42.638;23.376;2023-12-20T11:54:30;99.50;91.50;51.25
72307;PMS5003;60257;42.638;23.376;2023-12-20T11:56:55;97.75;87.75;49.50
72307;PMS5003;60257;42.638;23.376;2023-12-20T11:59:21;107.25;96.25;48.25
72307;PMS5003;60257;42.638;23.376;2023-12-20T12:01:50;108.25;93.50;49.50
72307;PMS5003;60257;42.638;23.376;2023-12-20T12:04:16;101.25;91.75;52.25
72307;PMS5003;60257;42.638;23.376;2023-12-20T12:06:42;107.00;93.50;54.25
72307;PMS5003;60257;42.638;23.376;2023-12-20T12:09:09;102.00;92.75;55.00
72307;PMS5003;60257;42.638;23.376;2023-12-20T12:11:34;107.25;92.25;46.50
72307;PMS5003;60257;42.638;23.376;2023-12-20T12:13:59;101.75;90.75;54.25
72307;PMS5003;60257;42.638;23.376;2023-12-20T12:16:25;111.00;105.75;59.50
72307;PMS5003;60257;42.638;23.376;2023-12-20T12:18:57;99.25;91.50;53.50
72307;PMS5003;60257;42.638;23.376;2023-12-20T12:21:24;110.00;94.75;50.75
72307;PMS5003;60257;42.638;23.376;2023-12-20T12:23:50;111.75;102.00;54.25
72307;PMS5003;60257;42.638;23.376;2023-12-20T12:26:15;106.75;98.25;56.00
72307;PMS5003;60257;42.638;23.376;2023-12-20T12:28:41;104.00;98.25;58.75
72307;PMS5003;60257;42.638;23.376;2023-12-20T12:31:07;101.75;94.75;54.25
72307;PMS5003;60257;42.638;23.376;2023-12-20T12:33:34;109.25;97.25;52.25
72307;PMS5003;60257;42.638;23.376;2023-12-20T12:36:02;104.00;94.25;53.75
72307;PMS5003;60257;42.638;23.376;2023-12-20T12:38:30;97.25;92.00;54.25
72307;PMS5003;60257;42.638;23.376;2023-12-20T12:40:55;102.50;88.25;53.00
72307;PMS5003;60257;42.638;23.376;2023-12-20T12:43:21;85.75;67.00;38.00
72307;PMS5003;60257;42.638;23.376;2023-12-20T12:45:48;93.00;77.75;47.00
72307;PMS5003;60257;42.638;23.376;2023-12-20T12:48:13;96.25;83.25;46.00
72307;PMS5003;60257;42.638;23.376;2023-12-20T12:50:39;98.25;89.50;54.25
72307;PMS5003;60257;42.638;23.376;2023-12-20T12:53:04;102.75;92.25;52.00
72307;PMS5003;60257;42.638;23.376;2023-12-20T12:55:30;90.00;74.75;43.00
72307;PMS5003;60257;42.638;23.376;2023-12-20T12:57:55;98.00;86.50;47.75
72307;PMS5003;60257;42.638;23.376;2023-12-20T13:00:21;95.75;78.75;47.25
72307;PMS5003;60257;42.638;23.376;2023-12-20T13:02:46;97.75;85.50;49.50
72307;PMS5003;60257;42.638;23.376;2023-12-20T13:05:12;101.50;92.75;53.00
72307;PMS5003;60257;42.638;23.376;2023-12-20T13:07:37;104.75;94.00;49.25
72307;PMS5003;60257;42.638;23.376;2023-12-20T13:10:04;101.25;90.50;54.00
72307;PMS5003;60257;42.638;23.376;2023-12-20T13:12:31;108.25;98.50;53.25
72307;PMS5003;60257;42.638;23.376;2023-12-20T13:14:57;104.25;97.50;56.50
72307;PMS5003;60257;42.638;23.376;2023-12-20T13:17:22;86.25;71.75;43.25
72307;PMS5003;60257;42.638;23.376;2023-12-20T13:19:48;105.50;96.50;56.25
72307;PMS5003;60257;42.638;23.376;2023-12-20T13:22:14;107.00;97.50;57.25
72307;PMS5003;60257;42.638;23.376;2023-12-20T13:24:40;128.50;115.25;63.00
72307;PMS5003;60257;42.638;23.376;2023-12-20T13:27:05;109.75;95.50;57.50
72307;PMS5003;60257;42.638;23.376;2023-12-20T13:29:31;95.50;79.75;44.25
72307;PMS5003;60257;42.638;23.376;2023-12-20T13:31:57;102.25;86.75;49.50